M I D A S
Marine Information and Data Acquisition System
Tripno 613 of the Zeeleeuw from 2003-12-09 07:40:17 to 2003-12-09 16:15:26
Back to CruiseResearch ActivitiesStationsMapUnderway DataData graphs

EquipmentUnitsComment
TimeDGPSUTC
LatitudeDGPSDM.mWGS84
LongitudeDGPSDM.mWGS84
TemperatureSBE03/SBE38deg celciusITS90
ConductivitySBE21S/mITS90
SalinitySBE21 Practical Salinity Units
ChlorophylAChelsea fluorimeterg/lCalibrated in Aceton
Missing or incorrect values are displayed as -999
Sea surface data collected by the RV Zeeleeuw from 2003-12-09 07:40:17 to 2003-12-09 16:15:26
Time Latitude Longitude Temperature Conductivity Salinity ChlorophylA
2003-12-09 07:41:20 51°13.546 2°56.233 6.372884 2.193898 20.952699 4.645965
2003-12-09 07:42:20 51°13.528 2°56.242 6.422535 2.022238 19.20964 4.612255
2003-12-09 07:43:19 51°13.531 2°56.238 6.489337 2.50905 24.249944 3.600973
2003-12-09 07:44:19 51°13.545 2°56.203 6.486217 2.536077 24.523996 3.600973
2003-12-09 07:45:19 51°13.558 2°56.156 6.450692 2.521143 24.380105 3.702101
2003-12-09 07:46:19 51°13.571 2°56.106 6.430319 2.466988 23.82801 3.938067
2003-12-09 07:47:20 51°13.584 2°56.061 6.429972 2.552694 24.746832 4.140324
2003-12-09 07:48:20 51°13.596 2°56.025 6.433195 2.644728 25.730227 4.241452
2003-12-09 07:49:19 51°13.606 2°56.004 6.413015 2.674814 26.06271 4.477418
2003-12-09 07:50:20 51°13.608 2°56 6.414899 2.691646 26.24974 4.612255
2003-12-09 07:51:20 51°13.609 2°55.995 6.425709 2.730993 26.664271 4.544836
2003-12-09 07:52:20 51°13.612 2°55.989 6.425609 2.739515 26.75386 4.477418
2003-12-09 07:53:20 51°13.624 2°55.967 6.436417 2.742251 26.781928 4.511127
2003-12-09 07:54:19 51°13.648 2°55.916 6.425213 2.767397 27.049052 4.443708
2003-12-09 07:55:19 51°13.694 2°55.814 6.401707 2.750984 26.887945 4.612255
2003-12-09 07:56:20 51°13.771 2°55.678 6.400219 2.622848 25.523783 4.88193
2003-12-09 07:57:20 51°13.883 2°55.587 6.333026 2.4284 23.474693 5.387571
2003-12-09 07:58:20 51°14.001 2°55.505 6.322449 2.710899 26.524135 4.34258
2003-12-09 07:59:20 51°14.123 2°55.417 6.34519 2.752563 26.983997 4.005486
2003-12-09 08:00:19 51°14.246 2°55.288 6.345587 2.750563 26.91577 4.780802
2003-12-09 08:01:19 51°14.351 2°55.088 6.275155 2.585825 25.19313 4.612255
2003-12-09 08:02:18 51°14.5 2°54.924 6.222603 2.834849 27.92932 4.409999
2003-12-09 08:03:18 51°14.645 2°54.702 6.446975 3.033673 30.034998 4.308871
2003-12-09 08:04:18 51°14.806 2°54.479 6.5239 3.195816 31.646093 4.106614
2003-12-09 08:05:20 51°14.984 2°54.262 6.557305 3.219088 31.863158 4.544836
2003-12-09 08:06:18 51°15.144 2°54.051 6.579912 3.227091 31.944533 4.780802
2003-12-09 08:07:20 51°15.355 2°53.959 6.585303 3.231198 31.972808 4.713383
2003-12-09 08:08:19 51°15.564 2°53.939 6.590644 3.23857 32.044029 4.91564
2003-12-09 08:09:19 51°15.778 2°53.96 6.580358 3.244362 32.103524 3.668392
2003-12-09 08:10:20 51°15.982 2°54.06 6.603105 3.252577 32.200022 3.466136
2003-12-09 08:11:20 51°16.14 2°54.175 6.632664 3.263424 32.279583 4.511127
2003-12-09 08:12:19 51°16.223 2°54.261 6.650304 3.267636 32.305642 5.522409
2003-12-09 08:13:20 51°16.254 2°54.325 6.640323 3.268478 32.311656 5.45499
2003-12-09 08:14:20 51°16.25 2°54.325 6.627425 3.267952 32.318761 4.511127
2003-12-09 08:15:20 51°16.241 2°54.303 6.635975 3.267741 32.321282 4.511127
2003-12-09 08:16:37 51°16.228 2°54.271 6.639335 3.268794 32.32397 5.050477
2003-12-09 08:17:37 51°16.219 2°54.251 6.641015 3.269321 32.327325 5.252734
2003-12-09 08:18:38 51°16.21 2°54.24 6.642991 3.269532 32.326414 4.747093
2003-12-09 08:19:38 51°16.202 2°54.237 6.639533 3.2689 32.321904 4.443708
2003-12-09 08:20:38 51°16.198 2°54.238 6.633553 3.269005 32.327083 4.34258
2003-12-09 08:21:36 51°16.199 2°54.243 6.633998 3.268795 32.32719 4.477418
2003-12-09 08:22:38 51°16.204 2°54.253 6.632763 3.268689 32.330867 4.578546
2003-12-09 08:23:38 51°16.267 2°54.253 6.628414 3.268268 32.328665 4.645965
2003-12-09 08:24:37 51°16.35 2°54.045 6.630292 3.269111 32.335485 4.612255
2003-12-09 08:26:00 51°16.522 2°53.621 6.657368 3.270795 32.341873 3.365007
2003-12-09 08:27:00 51°16.66 2°53.319 6.70665 3.271954 32.321572 3.600973
2003-12-09 08:28:00 51°16.814 2°53.046 6.740946 3.277851 32.345122 4.780802
2003-12-09 08:29:00 51°16.958 2°52.782 6.799529 3.281537 32.358115 5.623537
2003-12-09 08:30:00 51°17.127 2°52.546 6.852148 3.287328 32.34919 5.690956
2003-12-09 08:31:00 51°17.295 2°52.304 6.873813 3.292699 32.366924 5.421281
2003-12-09 08:32:01 51°17.466 2°52.053 6.905658 3.298281 32.408529 5.286443
2003-12-09 08:33:00 51°17.63 2°51.81 6.929175 3.30302 32.43452 4.645965
2003-12-09 08:34:00 51°17.796 2°51.566 6.927552 3.306601 32.461489 4.511127
2003-12-09 08:35:00 51°17.965 2°51.317 6.927552 3.30955 32.49359 4.443708
2003-12-09 08:36:01 51°18.138 2°51.057 6.957895 3.311762 32.500026 4.511127
2003-12-09 08:37:01 51°18.299 2°50.894 6.997953 3.313973 32.488041 4.477418
2003-12-09 08:38:01 51°18.425 2°50.941 6.988076 3.320082 32.535221 4.477418
2003-12-09 08:39:01 51°18.487 2°50.996 6.961828 3.315659 32.515972 4.072905
2003-12-09 08:40:01 51°18.511 2°51.004 6.974757 3.313342 32.50359 4.039195
2003-12-09 08:41:01 51°18.521 2°50.982 6.959419 3.313973 32.497647 3.904358
2003-12-09 08:42:01 51°18.528 2°50.964 6.947372 3.312499 32.492823 3.870648
2003-12-09 08:43:01 51°18.529 2°50.953 6.956469 3.313342 32.50359 3.870648
2003-12-09 08:44:01 51°18.526 2°50.944 6.9576 3.313447 32.50714 3.904358
2003-12-09 08:45:01 51°18.52 2°50.937 6.955485 3.313447 32.50714 3.836939
2003-12-09 08:46:06 51°18.511 2°50.929 6.951994 3.313131 32.502902 3.938067
2003-12-09 08:47:05 51°18.501 2°50.923 6.947569 3.313342 32.510803 3.80323
2003-12-09 08:48:06 51°18.491 2°50.918 6.95696 3.313763 32.514585 3.702101
2003-12-09 08:49:12 51°18.506 2°50.941 6.95637 3.313974 32.515274 3.80323
2003-12-09 08:50:13 51°18.579 2°50.788 6.960009 3.312499 32.502438 4.039195
2003-12-09 08:51:13 51°18.452 2°50.541 6.967137 3.313342 32.507597 3.80323
2003-12-09 08:52:13 51°18.221 2°50.423 6.960353 3.315553 32.525245 3.702101
2003-12-09 08:53:12 51°17.986 2°50.306 6.992744 3.317449 32.535443 3.836939
2003-12-09 08:54:13 51°17.742 2°50.185 7.020797 3.323874 32.570816 4.275161
2003-12-09 08:55:13 51°17.504 2°50.067 7.023646 3.326823 32.58923 4.308871
2003-12-09 08:56:12 51°17.274 2°49.928 7.032388 3.329034 32.605238 4.511127
2003-12-09 08:57:13 51°17.046 2°49.76 7.044026 3.329666 32.608093 4.511127
2003-12-09 08:58:13 51°16.827 2°49.579 7.05414 3.331246 32.618034 4.645965
2003-12-09 08:59:13 51°16.607 2°49.374 7.070633 3.333352 32.62567 4.679674
2003-12-09 09:00:12 51°16.409 2°49.138 7.085649 3.335985 32.636613 4.511127
2003-12-09 09:01:13 51°16.208 2°48.892 7.089869 3.337776 32.648024 4.140324
2003-12-09 09:02:12 51°16.015 2°48.654 7.094677 3.338829 32.652236 3.80323
2003-12-09 09:03:12 51°15.817 2°48.416 7.089378 3.337987 32.647905 3.398717
2003-12-09 09:04:12 51°15.62 2°48.177 7.130335 3.339461 32.654282 3.263879
2003-12-09 09:05:13 51°15.42 2°47.941 7.174352 3.347044 32.687612 3.19646
2003-12-09 09:06:13 51°15.227 2°47.706 7.166022 3.351784 32.714116 2.960494
2003-12-09 09:07:11 51°15.044 2°47.469 7.12803 3.34715 32.691958 3.162751
2003-12-09 09:08:13 51°14.852 2°47.198 7.091586 3.341883 32.663723 3.027913
2003-12-09 09:09:11 51°14.674 2°46.942 7.040098 3.331351 32.600743 2.893076
2003-12-09 09:10:13 51°14.485 2°46.667 7.003652 3.324084 32.553075 2.65711
2003-12-09 09:11:12 51°14.305 2°46.41 6.915843 3.310498 32.466257 2.994204
2003-12-09 09:12:12 51°14.123 2°46.146 6.891682 3.298492 32.393217 3.23017
2003-12-09 09:13:12 51°13.937 2°45.894 6.903198 3.295332 32.367611 3.870648
2003-12-09 09:14:12 51°13.75 2°45.654 6.942356 3.299334 32.389594 4.174033
2003-12-09 09:15:12 51°13.558 2°45.43 6.94688 3.307127 32.439205 3.971777
2003-12-09 09:16:12 51°13.365 2°45.184 6.880755 3.303863 32.427683 3.735811
2003-12-09 09:17:12 51°13.178 2°44.931 6.834613 3.293963 32.379896 3.129042
2003-12-09 09:18:11 51°12.994 2°44.683 6.832987 3.288698 32.353712 2.724529
2003-12-09 09:19:13 51°12.8 2°44.424 6.850473 3.290067 32.360636 2.690819
2003-12-09 09:20:13 51°12.613 2°44.174 6.856728 3.292068 32.371242 2.690819
2003-12-09 09:21:13 51°12.428 2°43.925 6.858451 3.293331 32.376211 2.791947
2003-12-09 09:22:13 51°12.249 2°43.668 6.876472 3.294806 32.387476 2.859366
2003-12-09 09:23:12 51°12.075 2°43.411 6.902657 3.300282 32.424721 2.893076
2003-12-09 09:24:13 51°11.897 2°43.149 6.923911 3.305653 32.463188 2.926785
2003-12-09 09:25:13 51°11.719 2°42.895 6.945061 3.310709 32.500589 2.960494
2003-12-09 09:26:13 51°11.538 2°42.636 6.948061 3.317028 32.549309 2.994204
2003-12-09 09:27:11 51°11.365 2°42.382 6.979623 3.323453 32.616013 2.6234
2003-12-09 09:28:12 51°11.202 2°42.215 7.013183 3.336092 32.710869 2.65711
2003-12-09 09:29:10 51°11.103 2°42.179 7.023891 3.341674 32.756265 2.454853
2003-12-09 09:30:13 51°11.077 2°42.17 7.022909 3.343886 32.763386 2.320016
2003-12-09 09:31:13 51°11.072 2°42.152 7.035089 3.343148 32.761818 2.218888
2003-12-09 09:32:11 51°11.067 2°42.137 7.033075 3.34378 32.762241 2.185178
2003-12-09 09:33:13 51°11.061 2°42.121 7.027722 3.343886 32.765803 2.151469
2003-12-09 09:34:13 51°11.055 2°42.104 7.031062 3.343675 32.766737 2.218888
2003-12-09 09:35:13 51°11.049 2°42.086 7.031258 3.343675 32.765125 2.252597
2003-12-09 09:36:13 51°11.041 2°42.064 7.0372 3.343675 32.765125 2.151469
2003-12-09 09:37:13 51°11.034 2°42.036 7.02674 3.344096 32.764869 2.117759
2003-12-09 09:38:13 51°11.035 2°41.965 7.030816 3.343464 32.764447 2.117759
2003-12-09 09:39:12 51°11.015 2°41.715 7.038183 3.344728 32.778993 2.218888
2003-12-09 09:40:12 51°10.937 2°41.374 7.061061 3.347677 32.790891 2.353725
2003-12-09 09:41:13 51°10.853 2°41.016 7.0856 3.351785 32.815364 2.286306
2003-12-09 09:42:11 51°10.774 2°40.674 7.112729 3.357999 32.853814 2.320016
2003-12-09 09:43:10 51°10.693 2°40.323 7.134944 3.362844 32.883815 2.286306
2003-12-09 09:44:13 51°10.606 2°39.948 7.155631 3.363055 32.86595 2.320016
2003-12-09 09:45:13 51°10.529 2°39.586 7.0697 3.364845 32.900688 2.016631
2003-12-09 09:46:11 51°10.454 2°39.235 7.070485 3.353786 32.836294 1.881794
2003-12-09 09:47:11 51°10.391 2°38.867 7.142788 3.359263 32.875604 1.982922
2003-12-09 09:48:12 51°10.337 2°38.49 7.211924 3.3679 32.903171 2.387435
2003-12-09 09:49:13 51°10.282 2°38.116 7.263128 3.382646 32.994383 2.421144
2003-12-09 09:50:11 51°10.23 2°37.762 7.282404 3.391599 33.056579 2.151469
2003-12-09 09:51:13 51°10.174 2°37.382 7.295757 3.399921 33.132865 2.08405
2003-12-09 09:52:13 51°10.121 2°37.014 7.287589 3.403186 33.164144 1.949212
2003-12-09 09:53:13 51°10.083 2°36.639 7.275066 3.404134 33.186547 1.814375
2003-12-09 09:54:11 51°10.063 2°36.274 7.282062 3.411719 33.258085 1.679537
2003-12-09 09:55:13 51°10.129 2°35.907 7.28578 3.410455 33.25252 1.645828
2003-12-09 09:56:13 51°10.302 2°35.698 7.361601 3.450906 33.603016 1.645828
2003-12-09 09:57:10 51°10.509 2°35.685 7.360527 3.43247 33.406961 2.016631
2003-12-09 09:58:13 51°10.707 2°35.884 7.361455 3.4232 33.314904 2.286306
2003-12-09 09:59:13 51°10.893 2°36.091 7.353979 3.417406 33.249878 2.218888
2003-12-09 10:00:17 51°11.089 2°36.318 7.336191 3.411507 33.202332 2.252597
2003-12-09 10:01:18 51°11.275 2°36.536 7.334382 3.403712 33.126195 2.252597
2003-12-09 10:02:18 51°11.458 2°36.745 7.330716 3.394021 33.024741 2.387435
2003-12-09 10:03:23 51°11.656 2°36.973 7.337022 3.393705 33.023742 2.387435
2003-12-09 10:04:21 51°11.832 2°37.176 7.331401 3.392862 33.010619 2.252597
2003-12-09 10:05:21 51°12.02 2°37.376 7.314095 3.388333 32.972961 2.286306
2003-12-09 10:06:23 51°12.214 2°37.582 7.303338 3.382961 32.926988 2.252597
2003-12-09 10:07:23 51°12.401 2°37.78 7.295366 3.380644 32.911589 2.185178
2003-12-09 10:08:22 51°12.587 2°37.977 7.296393 3.37485 32.853818 2.117759
2003-12-09 10:09:21 51°12.78 2°38.154 7.307396 3.376325 32.862533 1.915503
2003-12-09 10:10:23 51°12.991 2°38.311 7.326415 3.383172 32.922841 1.848084
2003-12-09 10:11:21 51°13.19 2°38.459 7.326757 3.386542 32.951212 1.780665
2003-12-09 10:12:22 51°13.404 2°38.601 7.33013 3.391072 32.999323 1.645828
2003-12-09 10:13:22 51°13.62 2°38.722 7.340492 3.400236 33.091062 1.443571
2003-12-09 10:14:23 51°13.846 2°38.787 7.563452 3.411085 33.11953 1.645828
2003-12-09 10:15:21 51°14.055 2°38.737 7.715906 3.429623 33.105544 1.982922
2003-12-09 10:16:21 51°14.259 2°38.596 7.706236 3.435416 33.110934 2.185178
2003-12-09 10:17:21 51°14.466 2°38.457 7.723825 3.429306 33.054312 2.218888
2003-12-09 10:18:22 51°14.669 2°38.292 7.754618 3.435626 33.091674 2.185178
2003-12-09 10:19:21 51°14.867 2°38.136 7.782727 3.439208 33.106083 2.252597
2003-12-09 10:20:22 51°15.072 2°37.979 7.815772 3.446266 33.148858 2.218888
2003-12-09 10:21:21 51°15.27 2°37.834 7.826202 3.45069 33.175406 2.117759
2003-12-09 10:22:23 51°15.481 2°37.683 7.820478 3.451638 33.181546 1.881794
2003-12-09 10:23:21 51°15.678 2°37.546 7.814463 3.451849 33.191762 1.814375
2003-12-09 10:24:21 51°15.881 2°37.401 7.83304 3.453008 33.202543 1.746956
2003-12-09 10:25:23 51°16.093 2°37.243 7.890001 3.458275 33.218928 1.713247
2003-12-09 10:26:22 51°16.299 2°37.091 7.929432 3.46154 33.208394 1.5447
2003-12-09 10:27:22 51°16.497 2°36.899 7.94236 3.469757 33.27048 1.207606
2003-12-09 10:28:22 51°16.629 2°36.771 7.972274 3.473654 33.284137 1.173896
2003-12-09 10:29:22 51°16.651 2°36.763 7.986887 3.478816 33.32555 1.039059
2003-12-09 10:30:23 51°16.65 2°36.777 7.981081 3.48145 33.340838 1.173896
2003-12-09 10:31:21 51°16.651 2°36.782 7.977501 3.479132 33.326525 1.039059
2003-12-09 10:32:23 51°16.657 2°36.783 7.979484 3.478922 33.326671 1.072768
2003-12-09 10:33:23 51°16.663 2°36.779 7.993128 3.479132 33.326525 1.005349
2003-12-09 10:34:23 51°16.67 2°36.772 8.052606 3.487665 33.335348 1.106477
2003-12-09 10:35:21 51°16.677 2°36.761 8.02534 3.485664 33.344277 1.072768
2003-12-09 10:36:21 51°16.682 2°36.744 8.005706 3.483346 33.330773 1.106477
2003-12-09 10:37:21 51°16.686 2°36.725 8.002852 3.479975 33.314806 1.173896
2003-12-09 10:38:22 51°16.688 2°36.705 8.02123 3.481555 33.324454 1.173896
2003-12-09 10:39:21 51°16.688 2°36.686 8.023599 3.487349 33.372537 1.106477
2003-12-09 10:40:22 51°16.686 2°36.667 8.028338 3.489035 33.383293 1.106477
2003-12-09 10:41:22 51°16.684 2°36.652 8.034623 3.489035 33.380904 1.106477
2003-12-09 10:42:21 51°16.681 2°36.64 8.037524 3.490299 33.389566 1.140187
2003-12-09 10:43:22 51°16.678 2°36.631 8.038588 3.490826 33.393572 1.140187
2003-12-09 10:44:21 51°16.673 2°36.624 8.048401 3.490721 33.394841 1.106477
2003-12-09 10:45:21 51°16.666 2°36.621 8.061112 3.498516 33.442639 1.140187
2003-12-09 10:46:23 51°16.641 2°36.605 8.056327 3.494829 33.423377 1.106477
2003-12-09 10:47:21 51°16.566 2°36.474 8.093724 3.495988 33.425336 1.106477
2003-12-09 10:48:21 51°16.545 2°36.198 8.123858 3.504732 33.482357 1.308734
2003-12-09 10:49:22 51°16.668 2°35.966 8.132306 3.51158 33.530334 1.308734
2003-12-09 10:50:23 51°16.829 2°35.711 8.139305 3.514003 33.549667 1.376153
2003-12-09 10:51:22 51°16.987 2°35.467 8.134865 3.519271 33.595985 1.241315
2003-12-09 10:52:23 51°17.147 2°35.225 8.152433 3.522221 33.632082 1.207606
2003-12-09 10:53:21 51°17.301 2°35.001 8.180899 3.525171 33.641004 1.308734
2003-12-09 10:54:21 51°17.462 2°34.768 8.197973 3.528858 33.647356 1.376153
2003-12-09 10:55:23 51°17.63 2°34.532 8.203229 3.528858 33.644163 1.308734
2003-12-09 10:56:22 51°17.795 2°34.294 8.193343 3.52812 33.641136 1.207606
2003-12-09 10:57:21 51°17.953 2°34.045 8.236588 3.532545 33.668867 1.275024
2003-12-09 10:58:22 51°18.09 2°33.754 8.293578 3.539077 33.705316 1.173896
2003-12-09 10:59:23 51°18.227 2°33.466 8.419662 3.553511 33.76063 1.275024
2003-12-09 11:00:22 51°18.359 2°33.189 8.487869 3.565626 33.800071 1.241315
2003-12-09 11:01:21 51°18.492 2°32.908 8.523097 3.572053 33.821642 1.173896
2003-12-09 11:02:21 51°18.631 2°32.617 8.617839 3.582062 33.854635 1.140187
2003-12-09 11:03:22 51°18.772 2°32.32 8.709619 3.594178 33.905694 1.039059
2003-12-09 11:04:21 51°18.907 2°32.034 8.928989 3.611458 33.971842 0.97164
2003-12-09 11:05:22 51°19.047 2°31.74 8.949536 3.638958 34.098486 1.039059
2003-12-09 11:06:21 51°19.181 2°31.453 8.93409 3.640118 34.113739 1.005349
2003-12-09 11:07:23 51°19.324 2°31.152 8.919404 3.639275 34.118401 0.93793
2003-12-09 11:08:22 51°19.464 2°30.875 8.967837 3.641593 34.138628 1.005349
2003-12-09 11:09:21 51°19.601 2°30.606 8.973555 3.6535 34.223981 1.072768
2003-12-09 11:10:23 51°19.74 2°30.339 8.974174 3.656029 34.247176 1.072768
2003-12-09 11:11:21 51°19.833 2°30.199 8.976271 3.657715 34.261581 1.072768
2003-12-09 11:12:22 51°19.885 2°30.124 8.974556 3.659612 34.281359 0.97164
2003-12-09 11:13:22 51°19.925 2°30.068 8.968171 3.658453 34.271654 1.005349
2003-12-09 11:14:23 51°19.982 2°30.006 8.963786 3.657399 34.264636 1.005349
2003-12-09 11:15:22 51°20.002 2°30.032 8.971506 3.656451 34.257128 0.97164
2003-12-09 11:16:21 51°20.016 2°30.07 8.977938 3.660455 34.285383 1.106477
2003-12-09 11:17:21 51°20.039 2°30.101 8.991849 3.65898 34.274766 1.140187
2003-12-09 11:18:22 51°20.058 2°30.111 8.980988 3.660033 34.262732 1.106477
2003-12-09 11:19:21 51°20.062 2°30.115 8.971458 3.657715 34.260787 1.106477
2003-12-09 11:20:21 51°20.056 2°30.123 8.98861 3.658137 34.2628 1.140187
2003-12-09 11:21:22 51°20.044 2°30.128 8.991659 3.65761 34.250166 0.97164
2003-12-09 11:22:22 51°20.03 2°30.138 8.974937 3.657083 34.250227 0.97164
2003-12-09 11:23:21 51°20.017 2°30.152 8.978272 3.658664 34.265118 0.93793
2003-12-09 11:24:21 51°20.003 2°30.17 8.987991 3.658031 34.255353 0.97164
2003-12-09 11:25:23 51°19.989 2°30.19 8.967313 3.657715 34.248091 0.97164
2003-12-09 11:26:23 51°19.983 2°30.198 8.959926 3.65761 34.26207 1.039059
2003-12-09 11:27:23 51°19.989 2°30.2 8.97103 3.657505 34.265735 1.039059
2003-12-09 11:28:22 51°19.991 2°30.2 8.9777 3.659507 34.275495 0.97164
2003-12-09 11:29:23 51°19.985 2°30.181 8.969171 3.660033 34.274636 0.97164
2003-12-09 11:30:22 51°20.039 2°30.103 8.951728 3.657821 34.269032 0.836802
2003-12-09 11:31:23 51°20.144 2°30.259 8.953206 3.656767 34.262807 0.668255
2003-12-09 11:32:23 51°20.255 2°30.572 8.977319 3.658874 34.275256 0.904221
2003-12-09 11:33:22 51°20.368 2°30.94 9.005852 3.664459 34.306473 1.005349
2003-12-09 11:34:23 51°20.486 2°31.317 9.022043 3.667304 34.319442 0.97164
2003-12-09 11:35:23 51°20.604 2°31.684 9.027089 3.66878 34.327663 1.005349
2003-12-09 11:36:21 51°20.72 2°32.035 9.0378 3.670992 34.334035 1.005349
2003-12-09 11:37:22 51°20.843 2°32.398 9.037182 3.669728 34.324043 1.005349
2003-12-09 11:38:23 51°20.962 2°32.764 9.04613 3.669412 34.31361 1.072768
2003-12-09 11:39:22 51°21.077 2°33.117 9.053316 3.667936 34.295081 1.039059
2003-12-09 11:40:23 51°21.194 2°33.484 9.069685 3.666988 34.275702 0.97164
2003-12-09 11:41:22 51°21.308 2°33.838 9.239077 3.674153 34.290057 1.072768
2003-12-09 11:42:21 51°21.421 2°34.19 9.366269 3.695333 34.359689 1.072768
2003-12-09 11:43:23 51°21.539 2°34.561 9.424023 3.710296 34.399411 1.039059
2003-12-09 11:44:23 51°21.654 2°34.918 9.430174 3.713984 34.409957 1.106477
2003-12-09 11:45:22 51°21.766 2°35.272 9.419623 3.713352 34.405791 1.106477
2003-12-09 11:46:22 51°21.885 2°35.632 9.184483 3.702288 34.387513 1.005349
2003-12-09 11:47:22 51°22.007 2°35.996 9.089569 3.672045 34.275275 0.97164
2003-12-09 11:48:22 51°22.128 2°36.362 9.075014 3.66625 34.249823 0.97164
2003-12-09 11:49:21 51°22.248 2°36.723 9.113917 3.671518 34.2698 1.039059
2003-12-09 11:50:21 51°22.37 2°37.091 9.232054 3.678157 34.294492 1.072768
2003-12-09 11:51:23 51°22.495 2°37.465 9.356418 3.700707 34.368012 1.072768
2003-12-09 11:52:23 51°22.615 2°37.827 9.338368 3.704817 34.391602 1.072768
2003-12-09 11:53:22 51°22.732 2°38.183 9.359923 3.704079 34.383189 1.173896
2003-12-09 11:54:22 51°22.853 2°38.543 9.353007 3.704395 34.384094 1.173896
2003-12-09 11:55:22 51°22.972 2°38.906 9.352249 3.704606 34.384698 1.140187
2003-12-09 11:56:22 51°23.094 2°39.268 9.310455 3.701023 34.377585 1.173896
2003-12-09 11:57:22 51°23.217 2°39.633 9.310455 3.699126 34.367419 1.140187
2003-12-09 11:58:22 51°23.339 2°39.997 9.337278 3.701023 34.377585 1.106477
2003-12-09 11:59:22 51°23.46 2°40.362 9.350449 3.704184 34.379554 1.106477
2003-12-09 12:00:21 51°23.581 2°40.717 9.32747 3.702393 34.369696 1.072768
2003-12-09 12:01:22 51°23.705 2°41.084 9.289453 3.696702 34.33762 1.039059
2003-12-09 12:02:23 51°23.829 2°41.449 9.248757 3.689326 34.29908 1.005349
2003-12-09 12:03:23 51°23.952 2°41.809 9.20889 3.68353 34.275284 1.005349
2003-12-09 12:04:22 51°24.071 2°42.165 9.174603 3.675943 34.234458 1.039059
2003-12-09 12:05:23 51°24.194 2°42.533 9.144481 3.670253 34.205374 1.039059
2003-12-09 12:06:22 51°24.312 2°42.888 9.120716 3.664984 34.17748 1.106477
2003-12-09 12:07:21 51°24.431 2°43.245 9.092946 3.660453 34.154066 1.207606
2003-12-09 12:08:23 51°24.555 2°43.619 9.070304 3.656133 34.132033 1.173896
2003-12-09 12:09:21 51°24.672 2°43.968 9.048605 3.652024 34.111383 1.207606
2003-12-09 12:10:23 51°24.797 2°44.341 9.030945 3.648336 34.091159 1.308734
2003-12-09 12:11:21 51°24.913 2°44.69 9.016091 3.645491 34.07969 1.308734
2003-12-09 12:12:21 51°25.033 2°45.049 9.000756 3.642856 34.065677 1.443571
2003-12-09 12:13:23 51°25.157 2°45.422 8.986228 3.640222 34.048505 1.443571
2003-12-09 12:14:23 51°25.278 2°45.783 8.945246 3.635797 34.030799 1.409862
2003-12-09 12:15:33 51°25.42 2°46.203 8.91268 3.628948 34.002796 1.308734
2003-12-09 12:16:34 51°25.543 2°46.57 8.883962 3.625471 33.987045 1.140187
2003-12-09 12:17:33 51°25.663 2°46.923 8.856569 3.621362 33.969418 1.106477
2003-12-09 12:18:33 51°25.795 2°47.274 8.82988 3.617147 33.951464 1.106477
2003-12-09 12:19:34 51°25.93 2°47.63 8.812017 3.614408 33.944167 1.072768
2003-12-09 12:20:33 51°26.053 2°47.951 8.792238 3.611141 33.926618 1.106477
2003-12-09 12:21:34 51°26.109 2°48.198 8.775991 3.609034 33.918807 1.072768
2003-12-09 12:22:33 51°26.077 2°48.347 8.761221 3.605978 33.905023 0.836802
2003-12-09 12:23:34 51°26.028 2°48.435 8.75448 3.604609 33.904128 1.106477
2003-12-09 12:24:34 51°26.013 2°48.495 8.744343 3.604082 33.902568 0.904221
2003-12-09 12:25:34 51°26.018 2°48.55 8.755771 3.602607 33.898989 0.836802
2003-12-09 12:26:33 51°26.028 2°48.611 8.739227 3.602818 33.899613 1.072768
2003-12-09 12:27:33 51°26.05 2°48.676 8.731001 3.60208 33.895056 1.106477
2003-12-09 12:28:34 51°26.094 2°48.734 8.734588 3.601764 33.891747 1.039059
2003-12-09 12:29:33 51°26.148 2°48.678 8.72971 3.60071 33.891787 1.106477
2003-12-09 12:30:33 51°26.095 2°48.578 8.747929 3.602501 33.893933 1.005349
2003-12-09 12:31:33 51°26.044 2°48.506 8.757061 3.604082 33.906521 1.072768
2003-12-09 12:32:34 51°26.037 2°48.496 8.766049 3.606505 33.919229 1.039059
2003-12-09 12:33:33 51°26.039 2°48.491 8.786504 3.607243 33.920621 1.140187
2003-12-09 12:34:46 51°26.035 2°48.495 8.786265 3.609982 33.928722 1.072768
2003-12-09 12:35:45 51°26.033 2°48.492 8.779623 3.609666 33.937274 1.039059
2003-12-09 12:36:46 51°26.032 2°48.484 8.785405 3.609666 33.936483 1.140187
2003-12-09 12:37:46 51°26.031 2°48.474 8.791044 3.611141 33.942422 1.005349
2003-12-09 12:38:46 51°26.028 2°48.463 8.791617 3.611668 33.94635 1.005349
2003-12-09 12:39:45 51°26.024 2°48.45 8.793529 3.612195 33.950278 1.039059
2003-12-09 12:40:46 51°26.037 2°48.295 8.810871 3.613038 33.952766 1.106477
2003-12-09 12:41:45 51°26.191 2°48.367 8.80638 3.614197 33.951445 0.97164
2003-12-09 12:42:46 51°26.303 2°48.714 8.791044 3.611773 33.934806 1.140187
2003-12-09 12:43:45 51°26.359 2°49.103 8.762703 3.609139 33.925439 1.207606
2003-12-09 12:44:46 51°26.403 2°49.512 8.723492 3.603028 33.896285 1.106477
2003-12-09 12:45:45 51°26.444 2°49.911 8.685453 3.595547 33.857488 1.072768
2003-12-09 12:46:46 51°26.487 2°50.323 8.666258 3.589963 33.82823 1.072768
2003-12-09 12:47:46 51°26.526 2°50.728 8.648351 3.585854 33.799386 1.072768
2003-12-09 12:48:49 51°26.569 2°51.153 8.613287 3.579848 33.763277 1.173896
2003-12-09 12:49:50 51°26.619 2°51.562 8.578492 3.573738 33.733926 1.140187
2003-12-09 12:50:50 51°26.666 2°51.965 8.573362 3.570682 33.717654 1.072768
2003-12-09 12:51:49 51°26.72 2°52.36 8.573793 3.570155 33.716074 1.106477
2003-12-09 12:52:49 51°26.778 2°52.762 8.573793 3.569523 33.708645 1.106477
2003-12-09 12:53:49 51°26.836 2°53.163 8.570485 3.56868 33.701374 1.106477
2003-12-09 12:54:50 51°26.899 2°53.57 8.545836 3.566362 33.688091 1.207606
2003-12-09 12:55:51 51°26.96 2°53.976 8.523673 3.560146 33.64806 1.173896
2003-12-09 12:56:51 51°27.023 2°54.379 8.510333 3.555932 33.619559 1.241315
2003-12-09 12:57:49 51°27.085 2°54.77 8.491181 3.552982 33.599597 1.275024
2003-12-09 12:58:51 51°27.15 2°55.188 8.475914 3.547819 33.569773 1.241315
2003-12-09 12:59:51 51°27.211 2°55.589 8.46535 3.545818 33.557395 1.477281
2003-12-09 13:00:51 51°27.273 2°55.99 8.450508 3.543184 33.540728 1.5447
2003-12-09 13:01:50 51°27.334 2°56.384 8.434318 3.540234 33.52704 1.443571
2003-12-09 13:02:50 51°27.396 2°56.786 8.437634 3.539075 33.521152 1.477281
2003-12-09 13:03:49 51°27.458 2°57.184 8.447674 3.540128 33.527509 1.477281
2003-12-09 13:04:50 51°27.52 2°57.59 8.444984 3.541814 33.538151 1.308734
2003-12-09 13:05:51 51°27.582 2°57.996 8.431532 3.540655 33.536213 1.275024
2003-12-09 13:06:51 51°27.643 2°58.394 8.416154 3.53897 33.529516 1.376153
2003-12-09 13:07:51 51°27.702 2°58.788 8.375145 3.53623 33.516455 1.51099
2003-12-09 13:08:51 51°27.759 2°59.18 8.299019 3.527908 33.486387 1.612118
2003-12-09 13:09:51 51°27.816 2°59.571 8.218175 3.517162 33.448063 1.746956
2003-12-09 13:10:51 51°27.876 2°59.962 8.157066 3.50747 33.416034 1.949212
2003-12-09 13:11:50 51°27.935 3°0.349 8.126079 3.500939 33.394422 2.117759
2003-12-09 13:12:50 51°27.994 3°0.743 8.11198 3.499569 33.39895 1.848084
2003-12-09 13:13:49 51°28.054 3°1.133 8.136699 3.499464 33.399421 1.477281
2003-12-09 13:14:51 51°28.116 3°1.543 8.118788 3.501887 33.410822 1.308734
2003-12-09 13:15:49 51°28.176 3°1.928 8.090874 3.500518 33.420923 1.376153
2003-12-09 13:16:51 51°28.242 3°2.343 8.052654 3.496514 33.411034 1.443571
2003-12-09 13:17:49 51°28.303 3°2.734 8.039119 3.49504 33.417652 1.612118
2003-12-09 13:18:49 51°28.367 3°3.124 8.023696 3.491669 33.396161 1.409862
2003-12-09 13:19:49 51°28.366 3°3.342 7.99903 3.49209 33.424541 1.5447
2003-12-09 13:20:49 51°28.304 3°3.42 8.010784 3.489667 33.393198 1.241315
2003-12-09 13:21:50 51°28.275 3°3.421 8.002803 3.488298 33.3866 1.578409
2003-12-09 13:22:51 51°28.289 3°3.431 8.010832 3.487139 33.377462 1.578409
2003-12-09 13:23:50 51°28.299 3°3.429 8.014653 3.489456 33.380608 1.679537
2003-12-09 13:24:51 51°28.296 3°3.426 8.045065 3.489772 33.373623 1.409862
2003-12-09 13:25:51 51°28.282 3°3.431 8.010252 3.488929 33.370236 1.207606
2003-12-09 13:26:51 51°28.264 3°3.435 7.995934 3.486928 33.377611 1.409862
2003-12-09 13:27:49 51°28.248 3°3.426 7.973436 3.48598 33.377084 1.746956
2003-12-09 13:28:49 51°28.252 3°3.408 7.967822 3.486086 33.394944 2.218888
2003-12-09 13:29:51 51°28.264 3°3.397 7.979823 3.485664 33.389662 2.08405
2003-12-09 13:30:50 51°28.275 3°3.395 7.998353 3.485137 33.368916 1.645828
2003-12-09 13:31:49 51°28.282 3°3.402 8.008317 3.486928 33.368853 1.848084
2003-12-09 13:32:50 51°28.254 3°3.446 8.000965 3.486191 33.369768 1.51099
2003-12-09 13:33:50 51°28.169 3°3.649 7.996273 3.485348 33.360806 1.173896
2003-12-09 13:34:51 51°28.045 3°3.98 7.968209 3.483662 33.349247 1.409862
2003-12-09 13:35:51 51°27.915 3°4.295 7.854328 3.481872 33.411543 2.522272
2003-12-09 13:36:49 51°27.787 3°4.592 7.792482 3.472602 33.391043 2.320016
2003-12-09 13:37:49 51°27.653 3°4.893 7.757338 3.468178 33.384634 2.286306
2003-12-09 13:38:50 51°27.515 3°5.202 7.721348 3.46407 33.374382 2.151469
2003-12-09 13:39:51 51°27.383 3°5.512 7.677268 3.459119 33.364732 2.387435
2003-12-09 13:40:51 51°27.266 3°5.834 7.670072 3.455853 33.352239 2.387435
2003-12-09 13:41:49 51°27.154 3°6.145 7.6726 3.455116 33.346746 2.555982
2003-12-09 13:42:51 51°27.033 3°6.476 7.671968 3.455748 33.35513 3.19646
2003-12-09 13:43:49 51°26.921 3°6.784 7.676295 3.455011 33.343206 3.263879
2003-12-09 13:44:50 51°26.801 3°7.107 7.680865 3.455011 33.338385 3.263879
2003-12-09 13:45:49 51°26.721 3°7.416 7.684171 3.455959 33.342922 2.926785
2003-12-09 13:46:49 51°26.652 3°7.624 7.683539 3.455537 33.344833 2.758238
2003-12-09 13:47:51 51°26.581 3°7.822 7.696857 3.455748 33.339861 2.6234
2003-12-09 13:48:50 51°26.54 3°8.084 7.709978 3.457749 33.342031 2.758238
2003-12-09 13:49:50 51°26.48 3°8.235 7.723874 3.458171 33.336912 2.65711
2003-12-09 13:50:50 51°26.442 3°8.255 7.737912 3.460488 33.345677 2.825657
2003-12-09 13:51:50 51°26.443 3°8.268 7.753356 3.46112 33.342817 2.994204
2003-12-09 13:52:50 51°26.446 3°8.277 7.763892 3.463437 33.344363 2.65711
2003-12-09 13:53:51 51°26.451 3°8.284 7.765834 3.463543 33.3511 2.522272
2003-12-09 13:54:49 51°26.456 3°8.29 7.77234 3.464175 33.349845 2.589691
2003-12-09 13:55:50 51°26.462 3°8.296 7.774718 3.46428 33.352574 2.488563
2003-12-09 13:56:49 51°26.469 3°8.302 7.786076 3.464702 33.347464 2.454853
2003-12-09 13:57:49 51°26.471 3°8.305 7.794957 3.465439 33.352945 2.320016
2003-12-09 13:58:50 51°26.404 3°8.308 7.814123 3.466282 33.355545 2.421144
2003-12-09 13:59:49 51°26.345 3°8.534 7.809757 3.468494 33.352761 2.65711
2003-12-09 14:00:49 51°26.248 3°8.846 7.795879 3.467335 33.355591 2.926785
2003-12-09 14:01:49 51°26.157 3°9.188 7.756949 3.465334 33.35262 2.690819
2003-12-09 14:02:49 51°26.072 3°9.539 7.664383 3.459119 33.346262 2.758238
2003-12-09 14:03:49 51°25.982 3°9.883 7.580009 3.450481 33.342875 2.825657
2003-12-09 14:04:49 51°25.89 3°10.226 7.543627 3.444161 33.33057 2.960494
2003-12-09 14:05:51 51°25.797 3°10.582 7.52477 3.440896 33.323682 2.724529
2003-12-09 14:06:49 51°25.707 3°10.914 7.508346 3.439842 33.326873 2.589691
2003-12-09 14:07:49 51°25.629 3°11.269 7.492599 3.43763 33.320826 2.65711
2003-12-09 14:08:49 51°25.566 3°11.637 7.469923 3.436156 33.318677 2.421144
2003-12-09 14:09:51 51°25.514 3°12.026 7.445336 3.433312 33.309856 2.252597
2003-12-09 14:10:51 51°25.484 3°12.408 7.42606 3.430152 33.304899 2.117759
2003-12-09 14:11:51 51°25.49 3°12.798 7.421277 3.429414 33.303419 1.814375
2003-12-09 14:12:49 51°25.499 3°13.177 7.403897 3.428045 33.301594 1.746956
2003-12-09 14:13:50 51°25.515 3°13.577 7.393058 3.427308 33.300922 1.814375
2003-12-09 14:14:49 51°25.538 3°13.961 7.367611 3.424674 33.29598 1.746956
2003-12-09 14:15:49 51°25.565 3°14.351 7.342838 3.421936 33.289086 1.881794
2003-12-09 14:16:50 51°25.591 3°14.747 7.321966 3.41867 33.276496 1.982922
2003-12-09 14:17:49 51°25.615 3°15.131 7.314388 3.416774 33.268161 2.117759
2003-12-09 14:18:49 51°25.641 3°15.519 7.314731 3.416774 33.273026 1.982922
2003-12-09 14:19:49 51°25.665 3°15.909 7.315415 3.417301 33.27791 1.780665
2003-12-09 14:20:49 51°25.7 3°16.297 7.342056 3.417933 33.279877 1.780665
2003-12-09 14:21:49 51°25.738 3°16.685 7.380213 3.421409 33.284208 1.848084
2003-12-09 14:22:49 51°25.778 3°17.073 7.415077 3.426886 33.302042 2.252597
2003-12-09 14:23:50 51°25.837 3°17.431 7.424645 3.430257 33.317362 2.421144
2003-12-09 14:24:50 51°25.922 3°17.624 7.396036 3.429941 33.320429 2.353725
2003-12-09 14:25:50 51°25.924 3°17.748 7.373131 3.426044 33.313194 2.286306
2003-12-09 14:26:50 51°25.916 3°17.804 7.381092 3.425623 33.308645 2.252597
2003-12-09 14:27:51 51°25.916 3°17.826 7.386562 3.426465 33.312071 2.522272
2003-12-09 14:28:51 51°25.909 3°17.842 7.396769 3.427413 33.315014 2.522272
2003-12-09 14:29:50 51°25.901 3°17.848 7.41 3.428467 33.319093 2.454853
2003-12-09 14:30:49 51°25.897 3°17.848 7.418397 3.429836 33.321721 2.387435
2003-12-09 14:31:49 51°25.894 3°17.846 7.426646 3.430468 33.320443 2.218888
2003-12-09 14:32:49 51°25.891 3°17.841 7.430989 3.431416 33.324193 2.218888
2003-12-09 14:33:49 51°25.887 3°17.837 7.433381 3.431521 33.320474 2.252597
2003-12-09 14:34:49 51°25.865 3°17.815 7.447239 3.432364 33.326323 2.320016
2003-12-09 14:35:49 51°25.765 3°17.795 7.446263 3.43268 33.323258 2.117759
2003-12-09 14:36:50 51°25.591 3°17.75 7.472167 3.433628 33.314069 2.218888
2003-12-09 14:37:49 51°25.39 3°17.695 7.423864 3.433522 33.31051 1.746956
2003-12-09 14:38:51 51°25.163 3°17.741 7.42894 3.428888 33.28723 1.848084
2003-12-09 14:39:49 51°24.948 3°17.742 7.362725 3.421619 33.249257 1.780665
2003-12-09 14:40:51 51°24.757 3°17.556 7.134208 3.40761 33.178006 1.881794
2003-12-09 14:41:50 51°24.618 3°17.284 7.098111 3.368321 32.940824 1.814375
2003-12-09 14:42:49 51°24.478 3°17.005 7.1245 3.368532 32.942302 2.016631
2003-12-09 14:43:50 51°24.33 3°16.722 7.173568 3.378433 33.010911 2.151469
2003-12-09 14:44:50 51°24.181 3°16.456 7.167786 3.38686 33.077998 2.08405
2003-12-09 14:45:51 51°24.031 3°16.187 7.141514 3.381277 33.040133 1.949212
2003-12-09 14:46:51 51°23.888 3°15.92 7.130041 3.375589 32.997047 2.050341
2003-12-09 14:47:51 51°23.763 3°15.63 7.134405 3.372851 32.973806 2.151469
2003-12-09 14:48:51 51°23.636 3°15.342 7.124598 3.372008 32.960625 2.286306
2003-12-09 14:49:51 51°23.51 3°15.056 7.094039 3.36474 32.906 2.050341
2003-12-09 14:50:51 51°23.384 3°14.771 7.066706 3.354945 32.825495 1.915503
2003-12-09 14:51:49 51°23.261 3°14.495 7.03779 3.347993 32.774183 2.050341
2003-12-09 14:52:51 51°23.129 3°14.2 7.005176 3.339146 32.707051 2.08405
2003-12-09 14:53:49 51°23.004 3°13.923 6.991712 3.33251 32.661473 1.982922
2003-12-09 14:54:51 51°22.871 3°13.626 6.969644 3.329772 32.63974 2.185178
2003-12-09 14:55:50 51°22.73 3°13.37 6.934143 3.322505 32.586415 2.151469
2003-12-09 14:56:51 51°22.621 3°13.241 6.899753 3.308602 32.47686 2.320016
2003-12-09 14:57:51 51°22.602 3°13.21 6.898572 3.301651 32.419614 2.488563
2003-12-09 14:58:51 51°22.603 3°13.208 6.907184 3.303863 32.430884 2.555982
2003-12-09 14:59:49 51°22.606 3°13.196 6.893158 3.30144 32.402124 2.454853
2003-12-09 15:00:50 51°22.606 3°13.178 6.934782 3.303336 32.425953 2.522272
2003-12-09 15:01:51 51°22.598 3°13.161 6.939799 3.306917 32.422527 2.555982
2003-12-09 15:02:49 51°22.583 3°13.155 6.914662 3.303336 32.413956 2.387435
2003-12-09 15:03:49 51°22.566 3°13.16 6.918943 3.30123 32.40223 2.387435
2003-12-09 15:04:49 51°22.551 3°13.173 6.891534 3.30123 32.403829 2.454853
2003-12-09 15:05:50 51°22.532 3°13.194 6.875143 3.284695 32.247033 2.421144
2003-12-09 15:06:49 51°22.463 3°13.159 6.885382 3.300071 32.397618 2.994204
2003-12-09 15:07:51 51°22.398 3°12.887 6.897046 3.296701 32.366531 3.129042
2003-12-09 15:08:50 51°22.359 3°12.55 6.905117 3.29154 32.308774 2.859366
2003-12-09 15:09:51 51°22.323 3°12.192 6.905166 3.291014 32.292681 3.466136
2003-12-09 15:10:51 51°22.294 3°11.837 6.901722 3.293752 32.321671 2.724529
2003-12-09 15:11:51 51°22.233 3°11.491 6.924895 3.287433 32.242597 3.19646
2003-12-09 15:12:49 51°22.165 3°11.16 6.8388 3.288907 32.276143 3.162751
2003-12-09 15:13:51 51°22.085 3°10.816 6.843332 3.287328 32.31559 2.690819
2003-12-09 15:14:57 51°22.002 3°10.447 6.847518 3.289856 32.338337 3.061623
2003-12-09 15:15:58 51°21.926 3°10.105 6.863375 3.29449 32.37603 2.791947
2003-12-09 15:16:57 51°21.839 3°9.783 6.849784 3.299861 32.421734 2.522272
2003-12-09 15:17:59 51°21.737 3°9.452 6.830623 3.293753 32.385607 2.555982
2003-12-09 15:18:58 51°21.622 3°9.154 6.826041 3.29112 32.372119 2.522272
2003-12-09 15:19:59 51°21.492 3°8.856 6.796325 3.29291 32.386034 2.421144
2003-12-09 15:20:59 51°21.366 3°8.563 6.764968 3.282063 32.311753 2.690819
2003-12-09 15:21:58 51°21.24 3°8.277 6.70122 3.274059 32.269194 2.758238
2003-12-09 15:22:59 51°21.101 3°7.997 6.618924 3.262264 32.197099 2.825657
2003-12-09 15:23:59 51°20.964 3°7.722 6.604143 3.252997 32.148504 2.960494
2003-12-09 15:24:57 51°20.832 3°7.458 6.569476 3.250154 32.136575 2.825657
2003-12-09 15:26:01 51°20.687 3°7.168 6.539392 3.245415 32.117473 2.825657
2003-12-09 15:27:01 51°20.55 3°6.896 6.548646 3.243099 32.112898 2.994204
2003-12-09 15:28:01 51°20.412 3°6.622 6.546024 3.243414 32.104344 2.994204
2003-12-09 15:29:01 51°20.28 3°6.343 6.537759 3.241203 32.093706 3.263879
2003-12-09 15:30:01 51°20.147 3°6.062 6.551863 3.241835 32.090224 3.23017
2003-12-09 15:31:01 51°20.011 3°5.784 6.544935 3.244573 32.122659 3.398717
2003-12-09 15:32:01 51°19.874 3°5.507 6.537709 3.248469 32.170222 3.499845
2003-12-09 15:33:01 51°19.739 3°5.228 6.528157 3.246469 32.151477 3.331298
2003-12-09 15:34:01 51°19.605 3°4.948 6.538848 3.240676 32.086328 3.297589
2003-12-09 15:35:01 51°19.47 3°4.667 6.541372 3.239097 32.063398 3.533554
2003-12-09 15:36:01 51°19.334 3°4.386 6.550824 3.243309 32.105592 3.80323
2003-12-09 15:37:01 51°19.202 3°4.104 6.555821 3.246679 32.140951 3.836939
2003-12-09 15:38:01 51°19.077 3°3.814 6.557899 3.249417 32.161356 3.702101
2003-12-09 15:39:01 51°18.959 3°3.519 6.556068 3.248575 32.157732 3.668392
2003-12-09 15:40:01 51°18.837 3°3.229 6.562847 3.248469 32.153368 3.567264
2003-12-09 15:41:01 51°18.717 3°2.936 6.562154 3.249628 32.157248 3.466136
2003-12-09 15:42:01 51°18.598 3°2.639 6.5625 3.248996 32.155132 3.365007
2003-12-09 15:43:01 51°18.478 3°2.342 6.564776 3.250049 32.161867 3.331298
2003-12-09 15:44:01 51°18.354 3°2.05 6.568931 3.251734 32.177936 3.129042
2003-12-09 15:45:01 51°18.227 3°1.76 6.570613 3.254472 32.205552 3.095332
2003-12-09 15:46:01 51°18.102 3°1.467 6.567348 3.253735 32.194257 2.791947
2003-12-09 15:47:06 51°17.968 3°1.152 6.551071 3.250365 32.172553 2.589691
2003-12-09 15:48:05 51°17.845 3°0.866 6.559383 3.247416 32.147432 2.690819
2003-12-09 15:49:05 51°17.72 3°0.574 6.565666 3.24552 32.116224 2.758238
2003-12-09 15:50:05 51°17.595 3°0.28 6.578874 3.244046 32.091256 2.926785
2003-12-09 15:51:05 51°17.469 2°59.985 6.575214 3.244151 32.090009 2.960494
2003-12-09 15:52:05 51°17.344 2°59.688 6.573284 3.241308 32.064446 2.791947
2003-12-09 15:53:05 51°17.22 2°59.39 6.573928 3.240676 32.057521 2.859366
2003-12-09 15:54:05 51°17.094 2°59.092 6.580209 3.239412 32.042074 2.791947
2003-12-09 15:55:05 51°16.966 2°58.793 6.590249 3.240465 32.04802 2.758238
2003-12-09 15:56:06 51°16.837 2°58.486 6.588864 3.241308 32.054854 2.825657
2003-12-09 15:57:13 51°16.695 2°58.149 6.59816 3.241624 32.058315 2.758238
2003-12-09 15:58:13 51°16.568 2°57.847 6.602956 3.243309 32.067984 2.65711
2003-12-09 15:59:13 51°16.44 2°57.541 6.617738 3.245309 32.073119 2.960494
2003-12-09 16:00:13 51°16.313 2°57.235 6.626931 3.245836 32.073292 3.095332
2003-12-09 16:01:17 51°16.176 2°56.911 6.629303 3.245836 32.069299 2.758238
2003-12-09 16:02:17 51°16.049 2°56.611 6.64729 3.247521 32.078959 2.791947
2003-12-09 16:03:24 51°15.907 2°56.28 6.658949 3.252365 32.114397 2.690819
2003-12-09 16:04:25 51°15.783 2°55.988 6.670063 3.257315 32.158957 2.522272
2003-12-09 16:05:25 51°15.671 2°55.726 6.679199 3.260263 32.181615 2.555982
2003-12-09 16:06:25 51°15.554 2°55.451 6.68473 3.261316 32.190733 2.488563
2003-12-09 16:07:25 51°15.434 2°55.161 6.688137 3.266056 32.231358 2.488563
2003-12-09 16:08:32 51°15.281 2°54.862 6.703737 3.265634 32.222747 2.454853
2003-12-09 16:09:30 51°15.084 2°54.771 6.696431 3.267003 32.235316 2.488563
2003-12-09 16:10:31 51°14.885 2°54.746 6.69263 3.261948 32.185643 2.522272
2003-12-09 16:11:32 51°14.694 2°54.777 6.634097 3.239938 31.988026 2.893076
2003-12-09 16:12:29 51°14.521 2°54.854 6.500579 3.207083 31.705461 2.589691
2003-12-09 16:13:32 51°14.37 2°55.035 6.309685 3.190762 31.608858 2.926785
2003-12-09 16:14:32 51°14.289 2°55.216 6.197729 3.092736 30.760882 2.893076